Terminal Aerodrome Forecast
Issued by NWS

Home | Current Version | Previous Version | Text Only | Print | Product List | Glossary On
Versions: 1 2 3 4 5 6 7 8 9 10 11 12 13 14 15 16
000
FTUS44 KLZK 202200 AAC
TAFLLQ
TAF AMD
KLLQ 202220Z 2022/2118 08005KT P6SM BKN015 BKN050
     FM210000 08004KT P6SM VCSH BKN025 OVC050
     FM210900 VRB03KT 5SM -RA BR OVC010
     FM211500 12005KT P6SM BKN015 OVC035=

USA.gov is the U.S. government's official web portal to all federal, state and local government web resources and services.